Time;durP1;ratioP1;P1;durP2;ratioP2;P2;SDS_P1;SDS_P2;PMS_P1;PMS_P2;Temp;Humidity;BMP_temperature;BMP_pressure;BME280_temperature;BME280_humidity;BME280_pressure;Samples;Min_cycle;Max_cycle;Signal;HPM_P1;HPM_P2
2021/07/05 02:46:06;;;;;;;1.30;1.20;;;16.40;99.90;;;;;;5916486;23;94130;-80
2021/07/05 02:48:32;;;;;;;1.20;1.10;;;16.40;99.90;;;;;;4908038;28;91892;-80
2021/07/05 02:51:04;;;;;;;1.33;1.23;;;16.50;99.90;;;;;;4907662;28;92053;-80
2021/07/05 02:53:31;;;;;;;1.98;1.23;;;16.40;99.90;;;;;;4926073;28;94157;-81
2021/07/05 02:55:57;;;;;;;1.35;1.23;;;16.40;99.90;;;;;;4929152;28;92186;-80
2021/07/05 02:58:24;;;;;;;1.95;1.40;;;16.40;99.90;;;;;;4914824;28;91703;-80
2021/07/05 03:00:53;;;;;;;1.30;1.17;;;16.40;99.90;;;;;;4932404;28;92083;-80
2021/07/05 03:03:20;;;;;;;1.40;1.30;;;16.40;99.90;;;;;;4908744;28;93170;-79
2021/07/05 03:05:46;;;;;;;1.15;1.15;;;16.40;99.90;;;;;;4908690;28;93407;-80
2021/07/05 03:08:12;;;;;;;2.55;1.30;;;16.40;99.90;;;;;;4904254;28;91653;-80
2021/07/05 03:10:39;;;;;;;1.50;1.40;;;16.40;99.90;;;;;;4915836;28;91494;-80
2021/07/05 03:13:08;;;;;;;1.52;1.42;;;16.40;99.90;;;;;;4908863;28;91955;-80
2021/07/05 03:15:34;;;;;;;1.40;1.30;;;16.40;99.90;;;;;;4908077;28;92233;-80
2021/07/05 03:18:00;;;;;;;1.20;1.20;;;16.30;99.90;;;;;;4909783;28;92884;-80
2021/07/05 03:20:29;;;;;;;1.40;1.30;;;16.30;99.90;;;;;;4911975;28;91521;-80
2021/07/05 03:22:58;;;;;;;1.95;1.60;;;16.20;99.90;;;;;;4912913;28;92470;-80
2021/07/05 03:25:25;;;;;;;1.40;1.30;;;16.20;99.90;;;;;;4909082;28;92381;-80
2021/07/05 03:27:52;;;;;;;1.88;1.20;;;16.10;99.90;;;;;;4910689;28;91750;-79
2021/07/05 03:30:20;;;;;;;1.52;1.42;;;16.10;99.90;;;;;;4911152;28;91807;-80
2021/07/05 03:32:46;;;;;;;1.40;1.30;;;16.00;99.90;;;;;;4889329;28;94844;-80
2021/07/05 03:35:13;;;;;;;2.45;1.33;;;16.00;99.90;;;;;;4904790;28;92750;-80
2021/07/05 03:37:40;;;;;;;1.55;1.40;;;15.90;99.90;;;;;;4908281;28;91985;-82
2021/07/05 03:40:10;;;;;;;1.30;1.30;;;15.90;99.90;;;;;;4924013;28;91462;-79
2021/07/05 03:42:36;;;;;;;1.30;1.20;;;15.90;99.90;;;;;;4916317;28;93569;-79
2021/07/05 03:45:05;;;;;;;1.50;1.40;;;15.90;99.90;;;;;;4912959;28;93722;-81
2021/07/05 03:47:31;;;;;;;1.23;1.20;;;16.00;99.90;;;;;;4911091;28;91836;-79
2021/07/05 03:49:57;;;;;;;1.65;1.55;;;16.10;99.90;;;;;;4928787;28;91397;-79
2021/07/05 03:55:45;;;;;;;1.13;1.08;;;16.30;99.90;;;;;;4914654;28;91878;-82
2021/07/05 03:58:11;;;;;;;1.17;1.17;;;16.40;99.90;;;;;;4933636;28;91876;-82
2021/07/05 04:00:38;;;;;;;1.27;1.17;;;16.50;99.90;;;;;;4915269;28;91355;-82
2021/07/05 04:03:04;;;;;;;1.20;1.10;;;16.50;99.90;;;;;;4909210;28;92751;-82
2021/07/05 04:05:30;;;;;;;1.40;1.30;;;16.50;99.90;;;;;;4902629;28;92248;-82
2021/07/05 04:07:57;;;;;;;1.45;1.35;;;16.40;99.90;;;;;;4912432;28;92647;-81
2021/07/05 04:10:23;;;;;;;3.10;2.90;;;16.40;99.90;;;;;;4909752;28;91786;-81
2021/07/05 04:12:49;;;;;;;1.60;1.50;;;16.30;99.90;;;;;;4907262;28;92053;-80
2021/07/05 04:15:15;;;;;;;1.98;1.48;;;16.30;99.90;;;;;;4908085;28;92184;-81
2021/07/05 04:17:41;;;;;;;1.50;1.40;;;16.20;99.90;;;;;;4908287;28;91359;-81
2021/07/05 04:20:13;;;;;;;1.40;1.40;;;16.20;99.90;;;;;;4929139;28;91336;-81
2021/07/05 04:22:39;;;;;;;1.55;1.45;;;16.20;99.90;;;;;;4929239;28;92244;-82
2021/07/05 04:25:07;;;;;;;1.40;1.30;;;16.10;99.90;;;;;;4929495;28;92320;-80
2021/07/05 04:27:33;;;;;;;2.88;1.25;;;16.20;99.90;;;;;;4923780;28;91329;-81
2021/07/05 04:33:21;;;;;;;1.33;1.27;;;16.20;99.90;;;;;;4906775;28;93059;-80
2021/07/05 04:39:08;;;;;;;1.35;1.25;;;16.40;99.90;;;;;;4907681;28;91870;-79
2021/07/05 04:41:36;;;;;;;1.50;1.40;;;16.60;99.90;;;;;;4904563;28;91828;-78
2021/07/05 04:44:02;;;;;;;1.33;1.23;;;16.70;99.90;;;;;;4907816;28;91862;-80
2021/07/05 04:46:28;;;;;;;2.25;1.30;;;16.70;99.90;;;;;;4901897;28;91725;-80
2021/07/05 04:48:54;;;;;;;1.63;1.13;;;16.80;99.90;;;;;;4890144;28;92017;-80
2021/07/05 04:51:23;;;;;;;1.60;1.50;;;16.90;99.90;;;;;;4889314;28;91348;-80
2021/07/05 04:53:52;;;;;;;1.67;1.52;;;17.00;99.90;;;;;;4890062;28;93108;-82
2021/07/05 04:56:19;;;;;;;1.83;1.35;;;17.10;99.90;;;;;;4887928;28;92834;-78
2021/07/05 04:58:45;;;;;;;1.60;1.38;;;17.10;99.90;;;;;;4888593;28;92678;-82
2021/07/05 05:01:10;;;;;;;1.60;1.50;;;17.20;99.90;;;;;;4890015;28;92082;-81
2021/07/05 05:03:38;;;;;;;1.60;1.48;;;17.20;99.90;;;;;;4883277;28;91359;-81
2021/07/05 05:06:04;;;;;;;1.60;1.50;;;17.20;99.90;;;;;;4873534;28;92047;-83
2021/07/05 05:08:30;;;;;;;1.85;1.40;;;17.20;99.90;;;;;;4888468;28;91958;-83
2021/07/05 05:10:55;;;;;;;1.60;1.50;;;17.30;99.90;;;;;;4886284;28;91942;-83
2021/07/05 05:13:21;;;;;;;1.48;1.38;;;17.30;99.90;;;;;;4888179;28;91903;-81
2021/07/05 05:15:47;;;;;;;1.17;1.17;;;17.30;99.90;;;;;;4870747;28;93467;-80
2021/07/05 05:18:13;;;;;;;4.53;1.55;;;17.30;99.90;;;;;;4887596;28;91750;-80
2021/07/05 05:20:39;;;;;;;1.38;1.25;;;17.40;99.90;;;;;;4888099;28;92098;-81
2021/07/05 05:23:05;;;;;;;1.55;1.35;;;17.40;99.90;;;;;;4883838;28;93164;-80
2021/07/05 05:25:31;;;;;;;1.25;1.20;;;17.50;99.90;;;;;;4887389;28;93082;-81
2021/07/05 05:27:56;;;;;;;3.25;1.40;;;17.70;99.90;;;;;;4885322;28;91749;-79
2021/07/05 05:30:24;;;;;;;1.88;1.17;;;17.80;99.90;;;;;;4884802;28;91923;-79
2021/07/05 05:32:51;;;;;;;1.60;1.50;;;17.90;99.90;;;;;;4887268;28;91909;-81
2021/07/05 05:35:20;;;;;;;1.35;1.25;;;18.00;99.90;;;;;;4888182;28;91873;-80
2021/07/05 05:37:47;;;;;;;1.98;1.40;;;18.00;99.90;;;;;;4885450;28;91763;-80
2021/07/05 05:40:13;;;;;;;1.40;1.30;;;18.00;99.90;;;;;;4886909;28;91215;-80
2021/07/05 05:42:39;;;;;;;1.30;1.20;;;18.00;99.90;;;;;;4889873;28;92953;-79
2021/07/05 05:45:14;;;;;;;1.45;1.35;;;18.00;99.90;;;;;;4897207;28;95350;-79
2021/07/05 05:47:40;;;;;;;2.38;1.58;;;18.10;99.90;;;;;;4888501;28;93596;-80
2021/07/05 05:50:07;;;;;;;1.48;1.38;;;18.10;99.90;;;;;;4886028;28;91947;-78
2021/07/05 05:52:33;;;;;;;1.65;1.30;;;18.10;99.90;;;;;;4889192;28;91774;-79
2021/07/05 05:54:59;;;;;;;2.97;1.60;;;18.10;99.90;;;;;;4886795;28;91829;-79
2021/07/05 05:57:25;;;;;;;1.63;1.40;;;18.10;99.90;;;;;;4887227;28;91738;-80
2021/07/05 05:59:57;;;;;;;1.48;1.38;;;18.00;99.90;;;;;;4888724;28;92616;-80
2021/07/05 06:02:27;;;;;;;1.38;1.25;;;18.00;99.90;;;;;;4886941;28;93119;-80
2021/07/05 06:04:53;;;;;;;1.60;1.50;;;18.10;99.90;;;;;;4888625;28;92073;-80
2021/07/05 06:07:19;;;;;;;1.65;1.55;;;18.10;99.90;;;;;;4887584;28;92019;-79
2021/07/05 06:09:44;;;;;;;2.35;1.30;;;18.20;99.90;;;;;;4889040;28;92104;-80
2021/07/05 06:12:10;;;;;;;1.58;1.42;;;18.20;99.90;;;;;;4887352;28;93432;-80
2021/07/05 06:14:36;;;;;;;2.13;1.92;;;18.40;99.90;;;;;;4887661;28;93199;-80
2021/07/05 06:17:03;;;;;;;1.20;1.17;;;18.50;99.90;;;;;;4888374;28;92028;-80
2021/07/05 06:19:28;;;;;;;1.42;1.33;;;18.60;99.90;;;;;;4871946;28;91937;-79
2021/07/05 06:21:54;;;;;;;2.72;1.48;;;18.60;99.90;;;;;;4885355;28;92265;-78
2021/07/05 06:24:20;;;;;;;2.92;1.58;;;18.70;99.90;;;;;;4888129;28;93005;-80
2021/07/05 06:26:47;;;;;;;1.80;1.70;;;18.70;99.90;;;;;;4885614;28;91919;-80
2021/07/05 06:29:13;;;;;;;1.92;1.70;;;18.80;99.90;;;;;;4888835;28;91311;-80
2021/07/05 06:31:38;;;;;;;3.38;1.67;;;18.80;99.90;;;;;;4888164;28;92526;-79
2021/07/05 06:34:05;;;;;;;1.55;1.30;;;18.90;99.90;;;;;;4887944;28;92274;-81
2021/07/05 06:36:31;;;;;;;2.30;1.75;;;19.10;99.90;;;;;;4888189;28;93036;-80
2021/07/05 06:38:57;;;;;;;2.28;1.40;;;19.20;99.90;;;;;;4887361;28;91991;-79
2021/07/05 06:41:26;;;;;;;2.33;1.60;;;19.50;99.90;;;;;;4888098;28;93299;-80
2021/07/05 06:43:52;;;;;;;1.40;1.30;;;19.90;99.90;;;;;;4888865;28;92067;-79
2021/07/05 06:46:19;;;;;;;2.28;1.55;;;20.30;99.90;;;;;;4888376;28;92188;-80
2021/07/05 06:48:44;;;;;;;2.95;1.52;;;20.40;99.90;;;;;;4888832;28;91972;-79
2021/07/05 06:51:10;;;;;;;1.27;1.20;;;20.40;97.80;;;;;;4887563;28;93290;-80
2021/07/05 06:53:36;;;;;;;1.65;1.40;;;20.50;98.90;;;;;;4888875;28;91955;-79
2021/07/05 06:56:02;;;;;;;1.85;1.40;;;20.50;96.90;;;;;;4885860;28;92028;-79
2021/07/05 06:58:28;;;;;;;2.97;2.78;;;20.60;99.60;;;;;;4888249;28;91990;-80
2021/07/05 07:00:54;;;;;;;1.80;1.70;;;20.10;98.10;;;;;;4884154;28;93331;-81
2021/07/05 07:03:22;;;;;;;1.95;1.70;;;20.00;97.70;;;;;;4888442;28;92059;-79
2021/07/05 07:05:49;;;;;;;1.85;1.75;;;19.90;98.90;;;;;;4887828;28;92093;-78
2021/07/05 07:08:15;;;;;;;2.70;1.70;;;19.70;98.60;;;;;;4885770;28;91999;-80
2021/07/05 07:10:40;;;;;;;3.03;2.83;;;19.60;99.00;;;;;;4883191;28;92740;-80
2021/07/05 07:13:06;;;;;;;3.00;2.80;;;19.60;98.90;;;;;;4887987;28;92779;-80
2021/07/05 07:15:38;;;;;;;1.88;1.70;;;19.50;98.40;;;;;;4885136;28;92031;-80
2021/07/05 07:20:45;;;;;;;1.83;1.50;;;19.90;98.80;;;;;;4884112;28;92174;-80
2021/07/05 07:23:10;;;;;;;1.67;1.58;;;20.20;97.90;;;;;;4889566;28;92056;-80
2021/07/05 07:25:36;;;;;;;1.50;1.38;;;20.40;97.50;;;;;;4888612;28;92569;-81
2021/07/05 07:28:02;;;;;;;3.03;1.40;;;20.60;97.60;;;;;;4886596;28;92107;-81
2021/07/05 07:30:28;;;;;;;2.20;1.70;;;20.70;97.10;;;;;;4889200;28;92479;-81
2021/07/05 07:32:53;;;;;;;3.20;3.00;;;21.40;96.80;;;;;;4888437;28;92017;-81
2021/07/05 07:35:19;;;;;;;1.77;1.42;;;21.20;96.80;;;;;;4893888;28;91965;-80
2021/07/05 07:37:48;;;;;;;1.50;1.40;;;21.30;95.60;;;;;;4892367;28;92016;-80
2021/07/05 07:42:41;;;;;;;2.58;1.45;;;21.20;95.80;;;;;;4887914;28;92090;-81
2021/07/05 07:45:07;;;;;;;3.00;2.80;;;21.10;97.30;;;;;;4889840;28;91708;-81
2021/07/05 07:47:33;;;;;;;1.63;1.52;;;21.20;96.40;;;;;;4888926;28;92098;-81
2021/07/05 07:49:59;;;;;;;1.63;1.50;;;21.20;95.60;;;;;;4877855;28;95475;-81
2021/07/05 07:52:27;;;;;;;1.60;1.50;;;21.20;95.80;;;;;;4890274;28;92142;-80
2021/07/05 07:54:53;;;;;;;1.65;1.55;;;21.20;96.20;;;;;;4890333;28;92002;-81
2021/07/05 07:57:18;;;;;;;2.15;1.30;;;21.20;96.40;;;;;;4888932;28;91944;-80
2021/07/05 07:59:45;;;;;;;2.60;1.50;;;21.20;95.60;;;;;;4889620;28;91987;-81
2021/07/05 08:02:13;;;;;;;1.70;1.60;;;21.30;95.50;;;;;;4888022;28;92017;-79
2021/07/05 08:04:39;;;;;;;1.52;1.42;;;21.20;95.20;;;;;;4893947;28;91984;-79
2021/07/05 08:07:06;;;;;;;2.40;1.73;;;21.20;95.60;;;;;;4893503;28;91276;-81
2021/07/05 08:09:32;;;;;;;1.70;1.60;;;21.40;95.60;;;;;;4886550;28;92669;-80
2021/07/05 08:11:58;;;;;;;2.10;1.50;;;21.50;95.10;;;;;;4892556;28;92110;-79
2021/07/05 08:14:24;;;;;;;2.00;1.45;;;21.70;94.90;;;;;;4889962;28;92927;-79
2021/07/05 08:16:50;;;;;;;2.97;1.50;;;21.80;94.80;;;;;;4884787;28;91947;-79
2021/07/05 08:19:16;;;;;;;1.50;1.40;;;21.90;95.00;;;;;;4886709;28;92558;-81
2021/07/05 08:21:42;;;;;;;2.22;1.67;;;21.90;94.10;;;;;;4882166;28;92156;-81
2021/07/05 08:24:08;;;;;;;1.60;1.50;;;21.90;93.60;;;;;;4891762;28;92146;-81
2021/07/05 08:26:34;;;;;;;3.03;2.80;;;21.90;92.90;;;;;;4892488;28;92041;-78
2021/07/05 08:29:01;;;;;;;3.85;2.22;;;21.80;93.00;;;;;;4889198;28;91942;-79
2021/07/05 08:31:27;;;;;;;2.67;1.85;;;21.80;93.50;;;;;;4892488;28;92353;-78
2021/07/05 08:33:53;;;;;;;6.00;2.30;;;21.80;93.20;;;;;;4894278;28;91749;-79
2021/07/05 08:36:20;;;;;;;7.22;2.15;;;21.80;93.10;;;;;;4892751;28;91707;-78
2021/07/05 08:38:46;;;;;;;3.95;2.00;;;21.80;92.60;;;;;;4893861;28;92536;-78
2021/07/05 08:41:13;;;;;;;2.35;1.60;;;21.80;93.00;;;;;;4891535;28;92493;-81
2021/07/05 08:43:42;;;;;;;5.93;1.95;;;21.80;93.00;;;;;;4887826;28;92183;-81
2021/07/05 08:46:09;;;;;;;2.58;1.60;;;21.80;93.10;;;;;;4887623;28;91676;-81
2021/07/05 08:48:41;;;;;;;1.83;1.73;;;22.00;92.90;;;;;;4888348;28;93448;-81
2021/07/05 08:51:10;;;;;;;2.40;1.50;;;22.20;92.30;;;;;;4887137;28;91891;-81
2021/07/05 08:53:41;;;;;;;1.70;1.60;;;22.30;92.10;;;;;;4887459;28;92438;-81
2021/07/05 08:56:08;;;;;;;2.00;1.80;;;22.50;92.00;;;;;;4883552;28;91203;-81
2021/07/05 08:58:34;;;;;;;3.45;1.90;;;22.70;92.30;;;;;;4887400;28;92947;-80
2021/07/05 09:01:00;;;;;;;2.42;1.90;;;22.70;92.20;;;;;;4887701;28;91914;-81
2021/07/05 09:03:31;;;;;;;2.25;1.80;;;22.90;91.90;;;;;;4881328;28;92660;-80
2021/07/05 09:06:21;;;;;;;3.80;1.60;;;23.10;91.80;;;;;;4887753;28;91594;-81
2021/07/05 09:09:07;;;;;;;3.33;2.90;;;23.30;91.50;;;;;;4887683;28;92368;-81
2021/07/05 09:11:38;;;;;;;3.63;2.00;;;23.50;91.70;;;;;;4887370;28;92070;-81
2021/07/05 09:14:17;;;;;;;2.40;2.00;;;23.70;90.70;;;;;;4884720;28;92051;-80
2021/07/05 09:16:44;;;;;;;2.17;1.90;;;23.70;91.20;;;;;;4879346;28;91925;-81
2021/07/05 09:19:26;;;;;;;2.25;2.05;;;24.00;91.20;;;;;;4883612;28;92271;-81
2021/07/05 09:22:07;;;;;;;4.10;2.50;;;24.30;90.00;;;;;;4883854;28;91059;-81
2021/07/05 09:24:32;;;;;;;;;;;24.50;89.30;;;;;;4888878;28;92256;-81
2021/07/05 09:27:10;;;;;;;2.85;2.00;;;24.50;87.90;;;;;;4889776;28;92001;-81
2021/07/05 09:29:38;;;;;;;3.33;2.42;;;24.30;88.20;;;;;;4887506;28;93638;-81
2021/07/05 09:32:06;;;;;;;2.30;2.00;;;24.10;90.10;;;;;;4883124;28;96261;-81
2021/07/05 09:34:40;;;;;;;2.92;2.30;;;24.10;89.00;;;;;;4894122;28;92735;-80
2021/07/05 09:37:19;;;;;;;5.45;2.40;;;24.00;90.40;;;;;;4890322;28;92679;-81
2021/07/05 09:40:05;;;;;;;3.78;3.47;;;23.90;90.00;;;;;;4890716;28;92039;-81
2021/07/05 09:42:40;;;;;;;2.58;1.95;;;24.20;90.30;;;;;;4894812;28;92400;-81
2021/07/05 09:45:14;;;;;;;2.35;1.67;;;24.20;90.30;;;;;;4891726;28;91953;-80
2021/07/05 09:47:41;;;;;;;4.07;2.08;;;24.20;88.90;;;;;;4891290;28;91490;-81
2021/07/05 09:50:12;;;;;;;4.00;3.70;;;24.20;89.20;;;;;;4891199;28;93511;-81
2021/07/05 09:52:38;;;;;;;3.38;2.42;;;24.10;89.50;;;;;;4889896;28;92065;-81
2021/07/05 09:55:11;;;;;;;2.83;2.38;;;24.10;89.30;;;;;;4892053;28;93058;-81
2021/07/05 09:57:49;;;;;;;2.17;2.03;;;24.10;88.80;;;;;;4888449;28;92024;-80
2021/07/05 10:00:26;;;;;;;4.57;2.15;;;23.90;86.80;;;;;;4882306;28;93336;-81
2021/07/05 10:03:02;;;;;;;3.33;2.00;;;23.30;88.90;;;;;;4889958;28;92353;-81
2021/07/05 10:05:33;;;;;;;2.53;1.83;;;23.30;90.20;;;;;;4890628;28;91994;-81
2021/07/05 10:08:02;;;;;;;3.80;2.15;;;23.30;91.50;;;;;;4890743;28;92028;-81
2021/07/05 10:10:29;;;;;;;2.20;2.00;;;23.20;90.80;;;;;;4890494;28;92189;-81
2021/07/05 10:13:00;;;;;;;3.90;3.60;;;23.20;90.70;;;;;;4898638;28;91917;-81
2021/07/05 10:15:28;;;;;;;1.80;1.70;;;22.90;90.70;;;;;;4890562;28;91972;-80
2021/07/05 10:17:55;;;;;;;2.50;1.92;;;22.90;90.90;;;;;;4889535;28;91716;-80
2021/07/05 10:20:30;;;;;;;2.35;1.80;;;22.60;90.20;;;;;;4886866;28;93794;-80
2021/07/05 10:23:00;;;;;;;1.85;1.67;;;22.60;91.30;;;;;;4883456;28;92112;-80
2021/07/05 10:25:29;;;;;;;3.38;3.13;;;22.90;91.60;;;;;;4891998;28;92052;-80
2021/07/05 10:27:55;;;;;;;9.63;2.58;;;22.80;91.60;;;;;;4890754;28;92130;-80
2021/07/05 10:30:22;;;;;;;2.15;1.80;;;22.80;90.70;;;;;;4885459;28;93264;-80
2021/07/05 10:32:48;;;;;;;3.42;1.70;;;22.80;88.80;;;;;;4888481;28;92312;-81
2021/07/05 10:35:32;;;;;;;5.50;1.80;;;22.60;90.40;;;;;;4889296;28;92465;-79
2021/07/05 10:38:04;;;;;;;3.60;3.40;;;22.70;89.60;;;;;;4888040;28;90907;-80
2021/07/05 10:40:41;;;;;;;4.35;1.60;;;22.70;90.00;;;;;;4883548;28;92212;-80
2021/07/05 10:43:11;;;;;;;1.77;1.50;;;22.70;90.90;;;;;;4886356;28;92078;-80
2021/07/05 10:45:48;;;;;;;4.05;3.67;;;22.20;90.30;;;;;;4882160;28;92979;-80
2021/07/05 10:48:16;;;;;;;2.05;1.50;;;22.80;90.90;;;;;;4888095;28;91873;-80
2021/07/05 10:50:44;;;;;;;2.03;1.60;;;22.80;89.50;;;;;;4879854;28;92175;-79
2021/07/05 10:53:12;;;;;;;1.77;1.60;;;22.90;90.00;;;;;;4877964;28;92410;-81
2021/07/05 10:55:48;;;;;;;2.95;1.67;;;22.90;89.10;;;;;;4904135;28;91838;-81
2021/07/05 10:58:32;;;;;;;3.40;3.20;;;23.20;88.10;;;;;;4897025;28;91905;-81
2021/07/05 11:01:00;;;;;;;1.92;1.70;;;22.80;88.20;;;;;;4884702;28;92185;-81
2021/07/05 11:06:25;;;;;;;2.22;1.63;;;22.90;90.90;;;;;;4889428;28;91740;-81
2021/07/05 11:08:52;;;;;;;4.82;3.80;;;23.10;88.80;;;;;;4890708;28;91456;-81
2021/07/05 11:11:32;;;;;;;4.13;2.05;;;22.80;89.20;;;;;;4891993;28;94166;-81
2021/07/05 11:14:27;;;;;;;3.97;3.58;;;23.20;88.30;;;;;;4887698;28;93402;-79
2021/07/05 11:17:05;;;;;;;2.95;2.17;;;22.80;88.40;;;;;;4884408;28;91908;-81
2021/07/05 11:19:39;;;;;;;3.60;3.40;;;22.90;89.10;;;;;;4890371;28;91852;-81
2021/07/05 11:22:11;;;;;;;2.67;2.10;;;23.00;89.50;;;;;;4892924;28;92305;-80
2021/07/05 11:24:41;;;;;;;5.45;2.50;;;23.20;89.00;;;;;;4883595;28;92715;-81
2021/07/05 11:27:32;;;;;;;2.95;2.00;;;23.40;89.30;;;;;;4885204;28;91662;-80
2021/07/05 11:30:26;;;;;;;5.35;1.95;;;23.50;89.30;;;;;;4884392;28;90727;-80
2021/07/05 11:33:03;;;;;;;3.53;3.28;;;23.50;87.40;;;;;;4888313;28;92779;-81
2021/07/05 11:35:37;;;;;;;4.22;2.17;;;23.50;87.90;;;;;;4889853;28;91839;-80
2021/07/05 11:38:08;;;;;;;3.78;2.08;;;23.70;89.30;;;;;;4887944;28;93100;-80
2021/07/05 11:40:42;;;;;;;2.17;1.73;;;23.70;90.10;;;;;;4890255;28;92279;-80
2021/07/05 11:43:08;;;;;;;3.97;3.67;;;23.70;87.70;;;;;;4890755;28;92746;-80
2021/07/05 11:45:51;;;;;;;3.35;2.08;;;23.80;88.20;;;;;;4890228;28;92282;-79
2021/07/05 11:48:39;;;;;;;2.58;1.95;;;23.70;87.40;;;;;;4882814;28;91879;-80
2021/07/05 11:51:19;;;;;;;4.82;2.20;;;23.70;85.90;;;;;;4872228;28;91528;-79
2021/07/05 11:53:55;;;;;;;3.65;3.35;;;23.40;87.30;;;;;;4890378;28;92780;-80
2021/07/05 11:56:41;;;;;;;3.60;3.30;;;23.50;87.20;;;;;;4890308;28;91994;-80
2021/07/05 11:59:09;;;;;;;4.25;3.05;;;23.90;88.50;;;;;;4890989;28;91747;-81
2021/07/05 12:01:37;;;;;;;4.60;3.30;;;23.80;87.70;;;;;;4889613;28;91991;-80
2021/07/05 12:04:06;;;;;;;1.73;1.63;;;23.80;88.00;;;;;;4888686;28;94095;-81
2021/07/05 12:06:33;;;;;;;2.58;2.10;;;23.70;86.70;;;;;;4880420;28;92869;-81
2021/07/05 12:09:08;;;;;;;2.78;1.83;;;23.60;86.10;;;;;;4884470;28;91968;-80
2021/07/05 12:11:37;;;;;;;3.40;3.20;;;23.60;85.10;;;;;;4882167;28;92036;-80
2021/07/05 12:14:15;;;;;;;6.07;2.10;;;23.60;85.60;;;;;;4888571;28;92274;-79
2021/07/05 12:16:45;;;;;;;1.90;1.60;;;23.60;86.70;;;;;;4890695;28;91923;-80
2021/07/05 12:19:13;;;;;;;3.47;3.17;;;23.70;85.60;;;;;;4893241;28;91888;-78
2021/07/05 12:22:06;;;;;;;3.17;1.92;;;23.50;85.90;;;;;;4891810;28;91013;-80
2021/07/05 12:24:55;;;;;;;3.75;3.50;;;23.90;84.00;;;;;;4880375;28;92278;-79
2021/07/05 12:27:24;;;;;;;2.05;1.77;;;23.40;84.60;;;;;;4890875;28;91979;-79
2021/07/05 12:29:58;;;;;;;5.90;3.72;;;23.50;84.40;;;;;;4900793;28;92541;-80
2021/07/05 12:32:31;;;;;;;3.20;2.20;;;23.60;85.90;;;;;;4893374;28;91890;-79
2021/07/05 12:34:58;;;;;;;2.83;2.22;;;23.70;86.90;;;;;;4889703;28;91974;-78
2021/07/05 12:37:31;;;;;;;2.92;2.30;;;23.80;85.60;;;;;;4890007;28;92292;-78
2021/07/05 12:40:09;;;;;;;3.20;2.30;;;23.90;85.20;;;;;;4889614;28;91602;-79
2021/07/05 12:42:37;;;;;;;2.58;2.38;;;24.00;85.00;;;;;;4878797;28;91341;-80
2021/07/05 12:45:20;;;;;;;2.40;2.20;;;24.00;88.00;;;;;;4898714;28;92098;-80
2021/07/05 12:48:02;;;;;;;2.20;2.00;;;24.10;87.70;;;;;;4900355;28;92138;-80
2021/07/05 12:50:42;;;;;;;2.25;2.08;;;24.10;85.10;;;;;;4906363;28;91942;-81
2021/07/05 12:53:40;;;;;;;3.60;3.27;;;23.90;83.00;;;;;;4906042;28;91930;-80
2021/07/05 12:56:21;;;;;;;2.83;2.30;;;24.10;82.40;;;;;;4902424;28;92990;-80
2021/07/05 12:58:47;;;;;;;;;;;24.10;84.10;;;;;;4899355;28;92724;-80
2021/07/05 13:01:28;;;;;;;1.90;1.80;;;24.10;83.60;;;;;;4910749;28;91963;-79
2021/07/05 13:04:00;;;;;;;1.98;1.77;;;24.10;81.80;;;;;;4899572;28;92046;-78
2021/07/05 13:06:31;;;;;;;3.83;1.90;;;24.10;82.90;;;;;;4907788;28;93387;-79
2021/07/05 13:09:00;;;;;;;2.35;2.15;;;24.10;82.70;;;;;;4907802;28;92106;-80
2021/07/05 13:11:40;;;;;;;3.25;2.10;;;24.10;82.20;;;;;;4907231;28;92069;-79
2021/07/05 13:14:22;;;;;;;2.08;1.90;;;24.30;83.10;;;;;;4908070;28;91363;-80
2021/07/05 13:17:02;;;;;;;1.90;1.80;;;24.50;83.60;;;;;;4907608;28;91846;-79
2021/07/05 13:19:28;;;;;;;1.92;1.73;;;24.70;81.90;;;;;;4908746;28;92006;-81
2021/07/05 13:21:53;;;;;;;3.72;3.47;;;24.90;80.00;;;;;;4908258;28;93134;-82
2021/07/05 13:24:28;;;;;;;3.63;3.10;;;24.90;79.30;;;;;;4903479;28;91690;-78
2021/07/05 13:26:59;;;;;;;3.78;3.47;;;24.90;79.80;;;;;;4905937;28;93700;-81
2021/07/05 13:29:27;;;;;;;3.70;2.13;;;25.10;79.60;;;;;;4906602;28;91898;-80
2021/07/05 13:31:55;;;;;;;1.90;1.80;;;25.10;80.30;;;;;;4907516;28;92150;-81
2021/07/05 13:34:32;;;;;;;1.92;1.83;;;25.30;80.70;;;;;;4899469;28;92457;-80
2021/07/05 13:36:57;;;;;;;3.38;3.17;;;25.90;77.50;;;;;;4906736;28;92022;-81
2021/07/05 13:39:31;;;;;;;2.03;1.92;;;26.20;78.10;;;;;;4907061;28;92028;-80
2021/07/05 13:42:15;;;;;;;1.90;1.80;;;26.90;76.60;;;;;;4907644;28;92110;-80
2021/07/05 13:44:44;;;;;;;1.90;1.80;;;27.60;73.00;;;;;;4906428;28;91679;-80
2021/07/05 13:47:15;;;;;;;2.13;1.83;;;28.00;71.70;;;;;;4896584;28;94078;-80
2021/07/05 13:49:41;;;;;;;2.10;1.90;;;28.40;67.10;;;;;;4906439;28;93317;-80
2021/07/05 13:52:07;;;;;;;2.05;1.95;;;29.00;66.30;;;;;;4887784;28;91730;-80
2021/07/05 13:54:32;;;;;;;1.85;1.75;;;29.40;66.10;;;;;;4909328;28;91901;-81
2021/07/05 13:57:05;;;;;;;3.60;3.40;;;29.30;63.20;;;;;;4907108;28;91972;-79
2021/07/05 13:59:31;;;;;;;3.80;3.50;;;29.60;64.40;;;;;;4910482;28;91870;-78
2021/07/05 14:01:57;;;;;;;2.03;1.90;;;29.70;62.20;;;;;;4894314;28;91938;-79
2021/07/05 14:04:23;;;;;;;2.40;1.80;;;30.00;58.00;;;;;;4916928;28;91759;-80
2021/07/05 14:06:48;;;;;;;2.33;2.05;;;29.60;58.50;;;;;;4893766;28;93249;-78
2021/07/05 14:09:14;;;;;;;3.40;3.10;;;29.40;59.40;;;;;;4908995;28;92087;-79
2021/07/05 14:11:40;;;;;;;3.70;3.50;;;29.70;57.20;;;;;;4905892;28;93067;-80
2021/07/05 14:14:05;;;;;;;1.90;1.80;;;29.80;58.80;;;;;;4907724;28;91855;-79
2021/07/05 14:16:34;;;;;;;3.45;3.28;;;29.80;59.70;;;;;;4905497;28;92254;-78
2021/07/05 14:19:00;;;;;;;2.10;1.90;;;29.70;58.20;;;;;;4905400;28;92997;-81
2021/07/05 14:21:28;;;;;;;3.08;2.92;;;29.40;58.80;;;;;;4913150;28;92181;-79
2021/07/05 14:23:53;;;;;;;3.40;3.20;;;29.10;57.30;;;;;;4910313;28;92200;-80
2021/07/05 14:26:20;;;;;;;3.35;3.15;;;28.70;59.70;;;;;;4892525;28;95322;-80
2021/07/05 14:28:46;;;;;;;3.58;3.38;;;28.90;60.20;;;;;;4906402;28;91105;-79
2021/07/05 14:31:12;;;;;;;3.55;3.35;;;;;;;;;;4906776;28;91662;-80
2021/07/05 14:33:38;;;;;;;1.98;1.88;;;28.60;57.70;;;;;;4908932;28;91985;-83
2021/07/05 14:36:04;;;;;;;1.70;1.60;;;28.80;60.10;;;;;;4906910;28;93698;-78
2021/07/05 14:38:31;;;;;;;4.10;3.28;;;28.90;59.90;;;;;;4908767;28;92285;-81
2021/07/05 14:40:58;;;;;;;2.13;1.77;;;28.80;57.70;;;;;;4909836;28;92376;-81
2021/07/05 14:43:30;;;;;;;2.08;1.67;;;28.80;58.40;;;;;;4910510;28;91930;-81
2021/07/05 14:45:56;;;;;;;3.50;3.30;;;28.60;58.00;;;;;;4896100;28;92716;-81
2021/07/05 14:48:22;;;;;;;3.13;2.92;;;27.60;58.50;;;;;;4892389;28;91753;-80
2021/07/05 14:50:47;;;;;;;1.88;1.77;;;27.80;58.80;;;;;;4881659;28;91751;-81
2021/07/05 14:53:14;;;;;;;3.28;3.08;;;27.30;60.40;;;;;;4882770;28;91359;-81
2021/07/05 14:55:40;;;;;;;2.55;2.20;;;27.40;61.70;;;;;;4891436;28;92582;-81
2021/07/05 14:58:05;;;;;;;3.40;3.30;;;27.60;63.50;;;;;;4889391;28;91959;-81
2021/07/05 15:00:36;;;;;;;4.13;3.83;;;27.80;65.50;;;;;;4890893;28;92886;-81
2021/07/05 15:03:05;;;;;;;3.50;3.30;;;28.00;65.00;;;;;;4885569;28;92092;-79
2021/07/05 15:05:32;;;;;;;3.45;3.25;;;28.30;63.60;;;;;;4891392;28;92307;-81
2021/07/05 15:07:58;;;;;;;3.50;3.30;;;28.00;61.60;;;;;;4891867;28;91902;-81
2021/07/05 15:10:24;;;;;;;1.90;1.80;;;27.90;62.80;;;;;;4903462;28;91779;-81
2021/07/05 15:12:52;;;;;;;3.60;3.35;;;27.70;62.80;;;;;;4895192;28;91342;-81
2021/07/05 15:15:18;;;;;;;3.05;1.80;;;27.40;62.10;;;;;;4897688;28;92328;-81
2021/07/05 15:17:48;;;;;;;1.90;1.80;;;27.20;62.80;;;;;;4888945;28;91226;-80
2021/07/05 15:20:17;;;;;;;3.50;3.30;;;27.10;65.30;;;;;;4875626;28;91717;-80
2021/07/05 15:22:43;;;;;;;3.83;3.53;;;27.00;65.90;;;;;;4889226;28;92186;-79
2021/07/05 15:25:11;;;;;;;3.40;3.00;;;26.70;66.20;;;;;;4869930;28;96580;-79
2021/07/05 15:27:38;;;;;;;2.13;2.03;;;26.80;66.70;;;;;;4889180;28;95280;-80
2021/07/05 15:30:06;;;;;;;4.25;3.95;;;26.60;66.30;;;;;;4887511;28;92089;-79
2021/07/05 15:32:32;;;;;;;3.60;3.50;;;26.40;64.00;;;;;;4887305;28;92193;-80
2021/07/05 15:34:57;;;;;;;2.17;1.90;;;26.40;64.90;;;;;;4886928;28;92136;-79
2021/07/05 15:37:23;;;;;;;3.60;3.40;;;26.40;64.60;;;;;;4891932;28;92903;-78
2021/07/05 15:39:49;;;;;;;3.50;3.30;;;25.70;64.80;;;;;;4889154;28;91850;-80
2021/07/05 15:42:14;;;;;;;4.25;3.70;;;26.30;65.00;;;;;;4888958;28;91151;-80
2021/07/05 15:44:41;;;;;;;2.30;1.67;;;26.10;65.40;;;;;;4888056;28;93303;-79
2021/07/05 15:47:08;;;;;;;3.45;3.15;;;26.40;67.80;;;;;;4876670;28;91965;-80
2021/07/05 15:49:34;;;;;;;3.53;3.33;;;26.60;65.60;;;;;;4885707;28;92682;-80
2021/07/05 15:52:00;;;;;;;2.17;1.98;;;26.50;66.00;;;;;;4885914;28;91713;-79
2021/07/05 15:54:26;;;;;;;2.60;2.10;;;26.60;65.30;;;;;;4890684;28;93032;-80
2021/07/05 15:56:51;;;;;;;2.00;1.90;;;26.70;66.40;;;;;;4877742;28;91794;-80
2021/07/05 15:59:17;;;;;;;3.72;3.55;;;26.70;64.30;;;;;;4872653;29;91726;-81
2021/07/05 16:01:43;;;;;;;3.70;3.40;;;26.40;65.20;;;;;;4883857;28;92122;-80